sensor_id;sensor_type;location;lat;lon;timestamp;pressure;altitude;pressure_sealevel;temperature;humidity
29985;BME280;17387;42.690;23.328;2022-10-16T00:01:22;47675.19;;;-144.02;nan
29985;BME280;17387;42.690;23.328;2022-10-16T00:03:48;47693.22;;;-144.02;nan
29985;BME280;17387;42.690;23.328;2022-10-16T00:06:15;47695.25;;;-144.02;nan
29985;BME280;17387;42.690;23.328;2022-10-16T00:08:41;47705.41;;;-144.02;nan
29985;BME280;17387;42.690;23.328;2022-10-16T00:11:24;47687.13;;;-144.02;nan
29985;BME280;17387;42.690;23.328;2022-10-16T00:13:52;47721.66;;;-144.02;nan
29985;BME280;17387;42.690;23.328;2022-10-16T00:16:19;47693.47;;;-144.02;nan
29985;BME280;17387;42.690;23.328;2022-10-16T00:18:45;47705.41;;;-144.02;nan
29985;BME280;17387;42.690;23.328;2022-10-16T00:21:25;47721.66;;;-144.02;nan
29985;BME280;17387;42.690;23.328;2022-10-16T00:23:59;47685.09;;;-144.02;nan
29985;BME280;17387;42.690;23.328;2022-10-16T00:26:26;47668.84;;;-144.02;nan
29985;BME280;17387;42.690;23.328;2022-10-16T00:28:52;47676.97;;;-144.02;nan
29985;BME280;17387;42.690;23.328;2022-10-16T00:31:19;47711.50;;;-144.02;nan
29985;BME280;17387;42.690;23.328;2022-10-16T00:33:46;47675.19;;;-144.02;nan
29985;BME280;17387;42.690;23.328;2022-10-16T00:36:13;47685.34;;;-144.02;nan
29985;BME280;17387;42.690;23.328;2022-10-16T00:38:39;47699.56;;;-144.02;nan
29985;BME280;17387;42.690;23.328;2022-10-16T00:41:06;47744.25;;;-144.02;nan
29985;BME280;17387;42.690;23.328;2022-10-16T00:51:34;47728.00;;;-144.02;nan
29985;BME280;17387;42.690;23.328;2022-10-16T00:54:01;47689.41;;;-144.02;nan
29985;BME280;17387;42.690;23.328;2022-10-16T00:59:11;47711.75;;;-144.02;nan
29985;BME280;17387;42.690;23.328;2022-10-16T01:04:14;47729.78;;;-144.02;nan
29985;BME280;17387;42.690;23.328;2022-10-16T01:09:26;47717.59;;;-144.02;nan
29985;BME280;17387;42.690;23.328;2022-10-16T01:12:17;47666.81;;;-144.02;nan
29985;BME280;17387;42.690;23.328;2022-10-16T01:14:57;47685.34;;;-144.02;nan
29985;BME280;17387;42.690;23.328;2022-10-16T01:27:48;47689.41;;;-144.02;nan
29985;BME280;17387;42.690;23.328;2022-10-16T01:30:18;47709.72;;;-144.02;nan
29985;BME280;17387;42.690;23.328;2022-10-16T01:33:00;47660.97;;;-144.02;nan
29985;BME280;17387;42.690;23.328;2022-10-16T01:35:47;47693.47;;;-144.02;nan
29985;BME280;17387;42.690;23.328;2022-10-16T01:38:29;47699.56;;;-144.02;nan
29985;BME280;17387;42.690;23.328;2022-10-16T01:41:02;47748.31;;;-144.02;nan
29985;BME280;17387;42.690;23.328;2022-10-16T01:43:33;47697.53;;;-144.02;nan
29985;BME280;17387;42.690;23.328;2022-10-16T01:46:01;47711.75;;;-144.02;nan
29985;BME280;17387;42.690;23.328;2022-10-16T01:48:29;47689.41;;;-144.02;nan
29985;BME280;17387;42.690;23.328;2022-10-16T01:51:09;47736.13;;;-144.02;nan
29985;BME280;17387;42.690;23.328;2022-10-16T01:53:36;47709.72;;;-144.02;nan
29985;BME280;17387;42.690;23.328;2022-10-16T01:56:04;47709.72;;;-144.02;nan
29985;BME280;17387;42.690;23.328;2022-10-16T01:58:34;47719.63;;;-144.02;nan
29985;BME280;17387;42.690;23.328;2022-10-16T02:01:03;47683.06;;;-144.02;nan
29985;BME280;17387;42.690;23.328;2022-10-16T02:16:19;47725.97;;;-144.02;nan
29985;BME280;17387;42.690;23.328;2022-10-16T02:24:05;47721.91;;;-144.02;nan
29985;BME280;17387;42.690;23.328;2022-10-16T02:26:57;47697.53;;;-144.02;nan
29985;BME280;17387;42.690;23.328;2022-10-16T02:29:26;47715.81;;;-144.02;nan
29985;BME280;17387;42.690;23.328;2022-10-16T02:32:03;47699.56;;;-144.02;nan
29985;BME280;17387;42.690;23.328;2022-10-16T02:34:32;47693.47;;;-144.02;nan
29985;BME280;17387;42.690;23.328;2022-10-16T02:36:58;47730.03;;;-144.02;nan
29985;BME280;17387;42.690;23.328;2022-10-16T02:39:27;47732.06;;;-144.02;nan
29985;BME280;17387;42.690;23.328;2022-10-16T02:41:53;47689.41;;;-144.02;nan
29985;BME280;17387;42.690;23.328;2022-10-16T02:46:53;47742.22;;;-144.02;nan
29985;BME280;17387;42.690;23.328;2022-10-16T02:49:19;47709.72;;;-144.02;nan
29985;BME280;17387;42.690;23.328;2022-10-16T02:54:18;47701.59;;;-144.02;nan
29985;BME280;17387;42.690;23.328;2022-10-16T03:01:54;47723.94;;;-144.02;nan
29985;BME280;17387;42.690;23.328;2022-10-16T03:06:54;47673.16;;;-144.02;nan
29985;BME280;17387;42.690;23.328;2022-10-16T03:11:55;47717.84;;;-144.02;nan
29985;BME280;17387;42.690;23.328;2022-10-16T03:16:56;47719.88;;;-144.02;nan
29985;BME280;17387;42.690;23.328;2022-10-16T03:19:21;47667.06;;;-144.02;nan
29985;BME280;17387;42.690;23.328;2022-10-16T03:21:47;47642.69;;;-144.02;nan
29985;BME280;17387;42.690;23.328;2022-10-16T03:24:12;47677.22;;;-144.02;nan
29985;BME280;17387;42.690;23.328;2022-10-16T03:26:38;47711.75;;;-144.02;nan
29985;BME280;17387;42.690;23.328;2022-10-16T03:29:03;47697.53;;;-144.02;nan
29985;BME280;17387;42.690;23.328;2022-10-16T03:31:29;47703.63;;;-144.02;nan
29985;BME280;17387;42.690;23.328;2022-10-16T03:33:55;47734.09;;;-144.02;nan
29985;BME280;17387;42.690;23.328;2022-10-16T03:36:20;47736.13;;;-144.02;nan
29985;BME280;17387;42.690;23.328;2022-10-16T03:38:46;47713.78;;;-144.02;nan
29985;BME280;17387;42.690;23.328;2022-10-16T03:41:11;47703.63;;;-144.02;nan
29985;BME280;17387;42.690;23.328;2022-10-16T03:43:36;47734.09;;;-144.02;nan
29985;BME280;17387;42.690;23.328;2022-10-16T03:46:02;47656.91;;;-144.02;nan
29985;BME280;17387;42.690;23.328;2022-10-16T03:48:29;47709.72;;;-144.02;nan
29985;BME280;17387;42.690;23.328;2022-10-16T03:50:54;47734.09;;;-144.02;nan
29985;BME280;17387;42.690;23.328;2022-10-16T03:53:20;47734.09;;;-144.02;nan
29985;BME280;17387;42.690;23.328;2022-10-16T03:55:45;47721.91;;;-144.02;nan
29985;BME280;17387;42.690;23.328;2022-10-16T03:58:11;47701.59;;;-144.02;nan
29985;BME280;17387;42.690;23.328;2022-10-16T04:00:42;47697.53;;;-144.02;nan
29985;BME280;17387;42.690;23.328;2022-10-16T04:03:08;47723.94;;;-144.02;nan
29985;BME280;17387;42.690;23.328;2022-10-16T04:05:34;47740.19;;;-144.02;nan
29985;BME280;17387;42.690;23.328;2022-10-16T04:07:59;47721.91;;;-144.02;nan
29985;BME280;17387;42.690;23.328;2022-10-16T04:10:25;47734.09;;;-144.02;nan
29985;BME280;17387;42.690;23.328;2022-10-16T04:12:50;47721.91;;;-144.02;nan
29985;BME280;17387;42.690;23.328;2022-10-16T04:15:16;47703.63;;;-144.02;nan
29985;BME280;17387;42.690;23.328;2022-10-16T04:17:41;47742.22;;;-144.02;nan
29985;BME280;17387;42.690;23.328;2022-10-16T04:20:07;47681.28;;;-144.02;nan
29985;BME280;17387;42.690;23.328;2022-10-16T04:22:32;47705.66;;;-144.02;nan
29985;BME280;17387;42.690;23.328;2022-10-16T04:24:58;47770.66;;;-144.02;nan
29985;BME280;17387;42.690;23.328;2022-10-16T04:27:23;47717.84;;;-144.02;nan
29985;BME280;17387;42.690;23.328;2022-10-16T04:29:48;47736.13;;;-144.02;nan
29985;BME280;17387;42.690;23.328;2022-10-16T04:32:14;47728.00;;;-144.02;nan
29985;BME280;17387;42.690;23.328;2022-10-16T04:34:39;47730.03;;;-144.02;nan
29985;BME280;17387;42.690;23.328;2022-10-16T04:37:05;47705.66;;;-144.02;nan
29985;BME280;17387;42.690;23.328;2022-10-16T04:39:30;47736.13;;;-144.02;nan
29985;BME280;17387;42.690;23.328;2022-10-16T04:41:56;47681.28;;;-144.02;nan
29985;BME280;17387;42.690;23.328;2022-10-16T04:44:21;47667.06;;;-144.02;nan
29985;BME280;17387;42.690;23.328;2022-10-16T04:46:47;47713.78;;;-144.02;nan
29985;BME280;17387;42.690;23.328;2022-10-16T04:49:12;47748.31;;;-144.02;nan
29985;BME280;17387;42.690;23.328;2022-10-16T04:51:38;47729.78;;;-144.02;nan
29985;BME280;17387;42.690;23.328;2022-10-16T04:54:03;47728.00;;;-144.02;nan
29985;BME280;17387;42.690;23.328;2022-10-16T04:56:28;47713.53;;;-144.02;nan
29985;BME280;17387;42.690;23.328;2022-10-16T04:58:54;47685.34;;;-144.02;nan
29985;BME280;17387;42.690;23.328;2022-10-16T05:01:21;47764.56;;;-144.02;nan
29985;BME280;17387;42.690;23.328;2022-10-16T05:03:46;47701.59;;;-144.02;nan
29985;BME280;17387;42.690;23.328;2022-10-16T05:06:12;47703.63;;;-144.02;nan
29985;BME280;17387;42.690;23.328;2022-10-16T05:08:37;47746.28;;;-144.02;nan
29985;BME280;17387;42.690;23.328;2022-10-16T05:11:03;47697.53;;;-144.02;nan
29985;BME280;17387;42.690;23.328;2022-10-16T05:13:28;47732.06;;;-144.02;nan
29985;BME280;17387;42.690;23.328;2022-10-16T05:15:54;47721.91;;;-144.02;nan
29985;BME280;17387;42.690;23.328;2022-10-16T05:18:19;47715.81;;;-144.02;nan
29985;BME280;17387;42.690;23.328;2022-10-16T05:20:45;47750.34;;;-144.02;nan
29985;BME280;17387;42.690;23.328;2022-10-16T05:23:10;47744.25;;;-144.02;nan
29985;BME280;17387;42.690;23.328;2022-10-16T05:25:37;47721.91;;;-144.02;nan
29985;BME280;17387;42.690;23.328;2022-10-16T05:28:03;47719.88;;;-144.02;nan
29985;BME280;17387;42.690;23.328;2022-10-16T05:30:28;47673.16;;;-144.02;nan
29985;BME280;17387;42.690;23.328;2022-10-16T05:32:53;47703.63;;;-144.02;nan
29985;BME280;17387;42.690;23.328;2022-10-16T05:35:22;47699.56;;;-144.02;nan
29985;BME280;17387;42.690;23.328;2022-10-16T05:37:47;47711.75;;;-144.02;nan
29985;BME280;17387;42.690;23.328;2022-10-16T05:40:13;47707.69;;;-144.02;nan
29985;BME280;17387;42.690;23.328;2022-10-16T05:42:40;47734.09;;;-144.02;nan
29985;BME280;17387;42.690;23.328;2022-10-16T05:45:06;47744.25;;;-144.02;nan
29985;BME280;17387;42.690;23.328;2022-10-16T05:47:34;47701.59;;;-144.02;nan
29985;BME280;17387;42.690;23.328;2022-10-16T05:49:59;47740.19;;;-144.02;nan
29985;BME280;17387;42.690;23.328;2022-10-16T05:52:26;47701.59;;;-144.02;nan
29985;BME280;17387;42.690;23.328;2022-10-16T05:54:52;47681.28;;;-144.02;nan
29985;BME280;17387;42.690;23.328;2022-10-16T05:57:17;47728.00;;;-144.02;nan
29985;BME280;17387;42.690;23.328;2022-10-16T05:59:42;47683.31;;;-144.02;nan
29985;BME280;17387;42.690;23.328;2022-10-16T06:02:12;47681.28;;;-144.02;nan
29985;BME280;17387;42.690;23.328;2022-10-16T06:04:38;47713.78;;;-144.02;nan
29985;BME280;17387;42.690;23.328;2022-10-16T06:07:03;47695.50;;;-144.02;nan
29985;BME280;17387;42.690;23.328;2022-10-16T06:09:28;47687.38;;;-144.02;nan
29985;BME280;17387;42.690;23.328;2022-10-16T06:11:54;47723.94;;;-144.02;nan
29985;BME280;17387;42.690;23.328;2022-10-16T06:14:19;47725.97;;;-144.02;nan
29985;BME280;17387;42.690;23.328;2022-10-16T06:16:44;47713.78;;;-144.02;nan
29985;BME280;17387;42.690;23.328;2022-10-16T06:19:13;47705.66;;;-144.02;nan
29985;BME280;17387;42.690;23.328;2022-10-16T06:21:38;47695.50;;;-144.02;nan
29985;BME280;17387;42.690;23.328;2022-10-16T06:24:04;47713.78;;;-144.02;nan
29985;BME280;17387;42.690;23.328;2022-10-16T06:26:30;47707.69;;;-144.02;nan
29985;BME280;17387;42.690;23.328;2022-10-16T06:28:58;47725.97;;;-144.02;nan
29985;BME280;17387;42.690;23.328;2022-10-16T06:31:24;47675.19;;;-144.02;nan
29985;BME280;17387;42.690;23.328;2022-10-16T06:33:56;47715.81;;;-144.02;nan
29985;BME280;17387;42.690;23.328;2022-10-16T06:36:23;47689.41;;;-144.02;nan
29985;BME280;17387;42.690;23.328;2022-10-16T06:38:48;47699.56;;;-144.02;nan
29985;BME280;17387;42.690;23.328;2022-10-16T06:41:20;47705.66;;;-144.02;nan
29985;BME280;17387;42.690;23.328;2022-10-16T06:43:46;47665.03;;;-144.02;nan
29985;BME280;17387;42.690;23.328;2022-10-16T06:46:13;47697.53;;;-144.02;nan
29985;BME280;17387;42.690;23.328;2022-10-16T06:48:39;47665.03;;;-144.02;nan
29985;BME280;17387;42.690;23.328;2022-10-16T06:53:35;47660.97;;;-144.02;nan
29985;BME280;17387;42.690;23.328;2022-10-16T06:56:08;47685.34;;;-144.02;nan
29985;BME280;17387;42.690;23.328;2022-10-16T06:58:33;47723.94;;;-144.02;nan
29985;BME280;17387;42.690;23.328;2022-10-16T07:00:59;47660.97;;;-144.02;nan
29985;BME280;17387;42.690;23.328;2022-10-16T07:03:24;47707.69;;;-144.02;nan
29985;BME280;17387;42.690;23.328;2022-10-16T07:05:50;47677.22;;;-144.02;nan
29985;BME280;17387;42.690;23.328;2022-10-16T07:08:15;47685.09;;;-144.02;nan
29985;BME280;17387;42.690;23.328;2022-10-16T07:10:41;47697.53;;;-144.02;nan
29985;BME280;17387;42.690;23.328;2022-10-16T07:13:06;47693.47;;;-144.02;nan
29985;BME280;17387;42.690;23.328;2022-10-16T07:15:33;47675.19;;;-144.02;nan
29985;BME280;17387;42.690;23.328;2022-10-16T07:17:58;47723.94;;;-144.02;nan
29985;BME280;17387;42.690;23.328;2022-10-16T07:20:23;47640.66;;;-144.02;nan
29985;BME280;17387;42.690;23.328;2022-10-16T07:22:49;47719.88;;;-144.02;nan
29985;BME280;17387;42.690;23.328;2022-10-16T07:25:14;47673.16;;;-144.02;nan
29985;BME280;17387;42.690;23.328;2022-10-16T07:27:40;47673.16;;;-144.02;nan
29985;BME280;17387;42.690;23.328;2022-10-16T07:30:05;47677.22;;;-144.02;nan
29985;BME280;17387;42.690;23.328;2022-10-16T07:32:31;47648.78;;;-144.02;nan
29985;BME280;17387;42.690;23.328;2022-10-16T07:34:57;47673.16;;;-144.02;nan
29985;BME280;17387;42.690;23.328;2022-10-16T07:37:22;47658.94;;;-144.02;nan
29985;BME280;17387;42.690;23.328;2022-10-16T07:39:48;47652.84;;;-144.02;nan
29985;BME280;17387;42.690;23.328;2022-10-16T07:42:13;47640.66;;;-144.02;nan
29985;BME280;17387;42.690;23.328;2022-10-16T07:44:39;47646.75;;;-144.02;nan
29985;BME280;17387;42.690;23.328;2022-10-16T07:47:05;47665.03;;;-144.02;nan
29985;BME280;17387;42.690;23.328;2022-10-16T07:49:30;47620.34;;;-144.02;nan
29985;BME280;17387;42.690;23.328;2022-10-16T07:51:56;47620.34;;;-144.02;nan
29985;BME280;17387;42.690;23.328;2022-10-16T07:54:21;47624.41;;;-144.02;nan
29985;BME280;17387;42.690;23.328;2022-10-16T07:56:47;47671.13;;;-144.02;nan
29985;BME280;17387;42.690;23.328;2022-10-16T07:59:12;47697.53;;;-144.02;nan
29985;BME280;17387;42.690;23.328;2022-10-16T08:01:38;47650.81;;;-144.02;nan
29985;BME280;17387;42.690;23.328;2022-10-16T08:04:03;47660.97;;;-144.02;nan
29985;BME280;17387;42.690;23.328;2022-10-16T08:06:35;47632.28;;;-144.02;nan
29985;BME280;17387;42.690;23.328;2022-10-16T08:09:01;47675.19;;;-144.02;nan
29985;BME280;17387;42.690;23.328;2022-10-16T08:11:29;47620.09;;;-144.02;nan
29985;BME280;17387;42.690;23.328;2022-10-16T08:13:54;47644.72;;;-144.02;nan
29985;BME280;17387;42.690;23.328;2022-10-16T08:16:20;47620.34;;;-144.02;nan
29985;BME280;17387;42.690;23.328;2022-10-16T08:18:49;47667.06;;;-144.02;nan
29985;BME280;17387;42.690;23.328;2022-10-16T08:21:21;47644.72;;;-144.02;nan
29985;BME280;17387;42.690;23.328;2022-10-16T08:23:49;47620.34;;;-144.02;nan
29985;BME280;17387;42.690;23.328;2022-10-16T08:26:15;47665.03;;;-144.02;nan
29985;BME280;17387;42.690;23.328;2022-10-16T08:28:40;47638.63;;;-144.02;nan
29985;BME280;17387;42.690;23.328;2022-10-16T08:31:11;47608.16;;;-144.02;nan
29985;BME280;17387;42.690;23.328;2022-10-16T08:33:37;47636.59;;;-144.02;nan
29985;BME280;17387;42.690;23.328;2022-10-16T08:36:05;47610.19;;;-144.02;nan
29985;BME280;17387;42.690;23.328;2022-10-16T08:38:31;47634.56;;;-144.02;nan
29985;BME280;17387;42.690;23.328;2022-10-16T08:41:09;47610.19;;;-144.02;nan
29985;BME280;17387;42.690;23.328;2022-10-16T08:44:04;47709.72;;;-144.02;nan
29985;BME280;17387;42.690;23.328;2022-10-16T08:49:29;47612.22;;;-144.02;nan
29985;BME280;17387;42.690;23.328;2022-10-16T08:51:55;47636.59;;;-144.02;nan
29985;BME280;17387;42.690;23.328;2022-10-16T08:54:34;47632.53;;;-144.02;nan
29985;BME280;17387;42.690;23.328;2022-10-16T08:57:20;47624.41;;;-144.02;nan
29985;BME280;17387;42.690;23.328;2022-10-16T08:59:46;47634.56;;;-144.02;nan
29985;BME280;17387;42.690;23.328;2022-10-16T09:02:35;47642.69;;;-144.02;nan
29985;BME280;17387;42.690;23.328;2022-10-16T09:15:53;47591.91;;;-144.02;nan
29985;BME280;17387;42.690;23.328;2022-10-16T09:18:36;47583.78;;;-144.02;nan
29985;BME280;17387;42.690;23.328;2022-10-16T09:21:19;47636.59;;;-144.02;nan
29985;BME280;17387;42.690;23.328;2022-10-16T09:23:47;47557.38;;;-144.02;nan
29985;BME280;17387;42.690;23.328;2022-10-16T09:26:14;47606.13;;;-144.02;nan
29985;BME280;17387;42.690;23.328;2022-10-16T09:28:41;47628.47;;;-144.02;nan
29985;BME280;17387;42.690;23.328;2022-10-16T09:31:21;47583.78;;;-144.02;nan
29985;BME280;17387;42.690;23.328;2022-10-16T09:34:02;47577.69;;;-144.02;nan
29985;BME280;17387;42.690;23.328;2022-10-16T09:36:38;47571.59;;;-144.02;nan
29985;BME280;17387;42.690;23.328;2022-10-16T09:39:07;47591.91;;;-144.02;nan
29985;BME280;17387;42.690;23.328;2022-10-16T09:41:36;47607.91;;;-144.02;nan
29985;BME280;17387;42.690;23.328;2022-10-16T09:44:04;47577.44;;;-144.02;nan
29985;BME280;17387;42.690;23.328;2022-10-16T09:46:35;47636.34;;;-144.02;nan
29985;BME280;17387;42.690;23.328;2022-10-16T09:49:04;47598.00;;;-144.02;nan
29985;BME280;17387;42.690;23.328;2022-10-16T09:54:00;47630.25;;;-144.02;nan
29985;BME280;17387;42.690;23.328;2022-10-16T09:56:33;47595.72;;;-144.02;nan
29985;BME280;17387;42.690;23.328;2022-10-16T09:59:08;47581.50;;;-144.02;nan
29985;BME280;17387;42.690;23.328;2022-10-16T10:01:38;47577.44;;;-144.02;nan
29985;BME280;17387;42.690;23.328;2022-10-16T10:04:04;47577.44;;;-144.02;nan
29985;BME280;17387;42.690;23.328;2022-10-16T10:14:21;47551.28;;;-144.02;nan
29985;BME280;17387;42.690;23.328;2022-10-16T10:16:47;47593.69;;;-144.02;nan
29985;BME280;17387;42.690;23.328;2022-10-16T10:19:21;47567.28;;;-144.02;nan
29985;BME280;17387;42.690;23.328;2022-10-16T10:21:50;47567.28;;;-144.02;nan
29985;BME280;17387;42.690;23.328;2022-10-16T10:24:18;47589.88;;;-144.02;nan
29985;BME280;17387;42.690;23.328;2022-10-16T10:27:06;47595.97;;;-144.02;nan
29985;BME280;17387;42.690;23.328;2022-10-16T10:29:53;47575.66;;;-144.02;nan
29985;BME280;17387;42.690;23.328;2022-10-16T10:32:41;47573.63;;;-144.02;nan
29985;BME280;17387;42.690;23.328;2022-10-16T10:35:19;47632.53;;;-144.02;nan
29985;BME280;17387;42.690;23.328;2022-10-16T10:46:07;47532.78;;;-144.02;nan
29985;BME280;17387;42.690;23.328;2022-10-16T11:00:27;47591.91;;;-144.02;nan
29985;BME280;17387;42.690;23.328;2022-10-16T11:05:52;47551.28;;;-144.02;nan
29985;BME280;17387;42.690;23.328;2022-10-16T11:11:01;47539.09;;;-144.02;nan
29985;BME280;17387;42.690;23.328;2022-10-16T11:16:13;47579.72;;;-144.02;nan
29985;BME280;17387;42.690;23.328;2022-10-16T11:18:52;47563.47;;;-144.02;nan
29985;BME280;17387;42.690;23.328;2022-10-16T11:21:22;47547.22;;;-144.02;nan
29985;BME280;17387;42.690;23.328;2022-10-16T11:24:00;47547.22;;;-144.02;nan
29985;BME280;17387;42.690;23.328;2022-10-16T11:26:34;47563.47;;;-144.02;nan
29985;BME280;17387;42.690;23.328;2022-10-16T11:29:02;47539.09;;;-144.02;nan
29985;BME280;17387;42.690;23.328;2022-10-16T11:31:43;47551.28;;;-144.02;nan
29985;BME280;17387;42.690;23.328;2022-10-16T11:34:28;47571.59;;;-144.02;nan
29985;BME280;17387;42.690;23.328;2022-10-16T11:36:58;47522.84;;;-144.02;nan
29985;BME280;17387;42.690;23.328;2022-10-16T11:39:30;47539.09;;;-144.02;nan
29985;BME280;17387;42.690;23.328;2022-10-16T11:49:50;47535.03;;;-144.02;nan
29985;BME280;17387;42.690;23.328;2022-10-16T11:52:27;47547.22;;;-144.02;nan
29985;BME280;17387;42.690;23.328;2022-10-16T11:57:34;47575.66;;;-144.02;nan
29985;BME280;17387;42.690;23.328;2022-10-16T12:00:35;47595.97;;;-144.02;nan
29985;BME280;17387;42.690;23.328;2022-10-16T12:03:24;47537.06;;;-144.02;nan
29985;BME280;17387;42.690;23.328;2022-10-16T12:08:34;47559.41;;;-144.02;nan
29985;BME280;17387;42.690;23.328;2022-10-16T12:13:44;47530.97;;;-144.02;nan
29985;BME280;17387;42.690;23.328;2022-10-16T12:18:40;47569.56;;;-144.02;nan
29985;BME280;17387;42.690;23.328;2022-10-16T12:21:06;47563.47;;;-144.02;nan
29985;BME280;17387;42.690;23.328;2022-10-16T12:23:36;47549.25;;;-144.02;nan
29985;BME280;17387;42.690;23.328;2022-10-16T12:26:03;47551.28;;;-144.02;nan
29985;BME280;17387;42.690;23.328;2022-10-16T12:28:31;47555.34;;;-144.02;nan
29985;BME280;17387;42.690;23.328;2022-10-16T12:31:02;47563.47;;;-144.02;nan
29985;BME280;17387;42.690;23.328;2022-10-16T12:33:37;47547.22;;;-144.02;nan
29985;BME280;17387;42.690;23.328;2022-10-16T12:36:12;47510.66;;;-144.02;nan
29985;BME280;17387;42.690;23.328;2022-10-16T12:38:46;47533.00;;;-144.02;nan
29985;BME280;17387;42.690;23.328;2022-10-16T12:41:12;47589.88;;;-144.02;nan
29985;BME280;17387;42.690;23.328;2022-10-16T12:43:47;47553.09;;;-144.02;nan
29985;BME280;17387;42.690;23.328;2022-10-16T12:48:40;47520.81;;;-144.02;nan
29985;BME280;17387;42.690;23.328;2022-10-16T12:53:59;47585.56;;;-144.02;nan
29985;BME280;17387;42.690;23.328;2022-10-16T13:04:25;47441.59;;;-144.02;nan
29985;BME280;17387;42.690;23.328;2022-10-16T13:23:16;47472.06;;;-144.02;nan
29985;BME280;17387;42.690;23.328;2022-10-16T13:26:09;47465.97;;;-144.02;nan
29985;BME280;17387;42.690;23.328;2022-10-16T13:28:37;47465.75;;;-144.02;nan
29985;BME280;17387;42.690;23.328;2022-10-16T13:31:04;47482.22;;;-144.02;nan
29985;BME280;17387;42.690;23.328;2022-10-16T13:33:38;47457.84;;;-144.02;nan
29985;BME280;17387;42.690;23.328;2022-10-16T13:36:05;47506.59;;;-144.02;nan
29985;BME280;17387;42.690;23.328;2022-10-16T13:38:35;47455.59;;;-144.02;nan
29985;BME280;17387;42.690;23.328;2022-10-16T13:41:14;47449.72;;;-144.02;nan
29985;BME280;17387;42.690;23.328;2022-10-16T13:43:41;47470.03;;;-144.02;nan
29985;BME280;17387;42.690;23.328;2022-10-16T13:46:18;47465.97;;;-144.02;nan
29985;BME280;17387;42.690;23.328;2022-10-16T13:48:44;47435.50;;;-144.02;nan
29985;BME280;17387;42.690;23.328;2022-10-16T13:51:15;47423.09;;;-144.02;nan
29985;BME280;17387;42.690;23.328;2022-10-16T13:53:42;47476.13;;;-144.02;nan
29985;BME280;17387;42.690;23.328;2022-10-16T13:56:13;47482.00;;;-144.02;nan
29985;BME280;17387;42.690;23.328;2022-10-16T13:58:39;47431.44;;;-144.02;nan
29985;BME280;17387;42.690;23.328;2022-10-16T14:01:24;47443.63;;;-144.02;nan
29985;BME280;17387;42.690;23.328;2022-10-16T14:03:51;47441.59;;;-144.02;nan
29985;BME280;17387;42.690;23.328;2022-10-16T14:06:19;47498.47;;;-144.02;nan
29985;BME280;17387;42.690;23.328;2022-10-16T14:09:08;47474.09;;;-144.02;nan
29985;BME280;17387;42.690;23.328;2022-10-16T14:11:46;47492.38;;;-144.02;nan
29985;BME280;17387;42.690;23.328;2022-10-16T14:14:14;47530.75;;;-144.02;nan
29985;BME280;17387;42.690;23.328;2022-10-16T14:16:41;47498.47;;;-144.02;nan
29985;BME280;17387;42.690;23.328;2022-10-16T14:19:34;47535.03;;;-144.02;nan
29985;BME280;17387;42.690;23.328;2022-10-16T14:22:01;47441.59;;;-144.02;nan
29985;BME280;17387;42.690;23.328;2022-10-16T14:26:55;47504.56;;;-144.02;nan
29985;BME280;17387;42.690;23.328;2022-10-16T14:29:22;47496.44;;;-144.02;nan
29985;BME280;17387;42.690;23.328;2022-10-16T14:34:36;47478.16;;;-144.02;nan
29985;BME280;17387;42.690;23.328;2022-10-16T14:37:34;47486.06;;;-144.02;nan
29985;BME280;17387;42.690;23.328;2022-10-16T14:40:00;47461.69;;;-144.02;nan
29985;BME280;17387;42.690;23.328;2022-10-16T14:42:28;47453.56;;;-144.02;nan
29985;BME280;17387;42.690;23.328;2022-10-16T14:44:54;47516.53;;;-144.02;nan
29985;BME280;17387;42.690;23.328;2022-10-16T14:47:25;47522.84;;;-144.02;nan
29985;BME280;17387;42.690;23.328;2022-10-16T14:49:52;47528.94;;;-144.02;nan
29985;BME280;17387;42.690;23.328;2022-10-16T14:52:20;47496.22;;;-144.02;nan
29985;BME280;17387;42.690;23.328;2022-10-16T14:54:49;47492.38;;;-144.02;nan
29985;BME280;17387;42.690;23.328;2022-10-16T14:57:23;47496.44;;;-144.02;nan
29985;BME280;17387;42.690;23.328;2022-10-16T14:59:49;47543.16;;;-144.02;nan
29985;BME280;17387;42.690;23.328;2022-10-16T15:02:24;47536.84;;;-144.02;nan
29985;BME280;17387;42.690;23.328;2022-10-16T15:04:50;47526.91;;;-144.02;nan
29985;BME280;17387;42.690;23.328;2022-10-16T15:07:15;47526.69;;;-144.02;nan
29985;BME280;17387;42.690;23.328;2022-10-16T15:09:41;47537.06;;;-144.02;nan
29985;BME280;17387;42.690;23.328;2022-10-16T15:12:06;47551.28;;;-144.02;nan
29985;BME280;17387;42.690;23.328;2022-10-16T15:14:31;47557.38;;;-144.02;nan
29985;BME280;17387;42.690;23.328;2022-10-16T15:16:57;47565.50;;;-144.02;nan
29985;BME280;17387;42.690;23.328;2022-10-16T15:19:22;47557.16;;;-144.02;nan
29985;BME280;17387;42.690;23.328;2022-10-16T15:21:48;47512.69;;;-144.02;nan
29985;BME280;17387;42.690;23.328;2022-10-16T15:24:14;47567.53;;;-144.02;nan
29985;BME280;17387;42.690;23.328;2022-10-16T15:26:40;47559.41;;;-144.02;nan
29985;BME280;17387;42.690;23.328;2022-10-16T15:29:05;47555.34;;;-144.02;nan
29985;BME280;17387;42.690;23.328;2022-10-16T15:31:32;47561.44;;;-144.02;nan
29985;BME280;17387;42.690;23.328;2022-10-16T15:33:57;47543.16;;;-144.02;nan
29985;BME280;17387;42.690;23.328;2022-10-16T15:36:33;47591.91;;;-144.02;nan
29985;BME280;17387;42.690;23.328;2022-10-16T15:38:59;47555.34;;;-144.02;nan
29985;BME280;17387;42.690;23.328;2022-10-16T15:41:25;47585.81;;;-144.02;nan
29985;BME280;17387;42.690;23.328;2022-10-16T15:43:51;47555.34;;;-144.02;nan
29985;BME280;17387;42.690;23.328;2022-10-16T15:46:19;47575.66;;;-144.02;nan
29985;BME280;17387;42.690;23.328;2022-10-16T15:48:45;47593.94;;;-144.02;nan
29985;BME280;17387;42.690;23.328;2022-10-16T15:51:10;47581.75;;;-144.02;nan